Time;durP1;ratioP1;P1;durP2;ratioP2;P2;SDS_P1;SDS_P2;PMS_P1;PMS_P2;Temp;Humidity;BMP_temperature;BMP_pressure;BME280_temperature;BME280_humidity;BME280_pressure;Samples;Min_cycle;Max_cycle;Signal;HPM_P1;HPM_P2
2021/03/11 00:01:26;;;;;;;32.63;18.80;;;7.20;99.90;;;;;;5067366;28;20318;-61
2021/03/11 00:03:54;;;;;;;33.10;19.27;;;7.30;99.90;;;;;;5067235;28;20184;-61
2021/03/11 00:06:21;;;;;;;33.90;19.20;;;7.30;99.90;;;;;;5065821;28;20220;-61
2021/03/11 00:08:50;;;;;;;31.23;18.07;;;7.30;99.90;;;;;;5069844;28;20302;-61
2021/03/11 00:11:17;;;;;;;31.90;18.43;;;7.30;99.90;;;;;;5061741;28;20283;-61
2021/03/11 00:13:47;;;;;;;30.83;16.80;;;7.40;99.90;;;;;;5069320;28;20235;-61
2021/03/11 00:16:14;;;;;;;31.40;18.83;;;7.40;99.90;;;;;;5072025;28;20702;-61
2021/03/11 00:18:41;;;;;;;33.30;19.10;;;7.50;99.90;;;;;;5086709;28;20244;-61
2021/03/11 00:21:09;;;;;;;32.43;18.10;;;7.50;99.90;;;;;;5067868;28;20258;-61
2021/03/11 00:23:36;;;;;;;33.37;18.70;;;7.50;99.90;;;;;;5066580;28;20188;-61
2021/03/11 00:26:07;;;;;;;32.27;19.37;;;7.50;99.90;;;;;;5059000;28;20219;-61
2021/03/11 00:28:34;;;;;;;33.10;19.73;;;7.60;99.90;;;;;;5073396;28;20196;-61
2021/03/11 00:31:02;;;;;;;32.50;18.43;;;7.60;99.90;;;;;;5067647;28;20195;-61
2021/03/11 00:33:29;;;;;;;35.30;19.20;;;7.60;99.90;;;;;;5072136;28;20274;-61
2021/03/11 00:35:57;;;;;;;33.00;19.63;;;7.60;99.90;;;;;;5072875;28;20273;-61
2021/03/11 00:38:24;;;;;;;35.00;19.80;;;7.60;99.90;;;;;;5066913;28;20287;-61
2021/03/11 00:40:52;;;;;;;34.07;19.57;;;7.70;99.90;;;;;;5070976;28;20222;-61
2021/03/11 00:43:20;;;;;;;32.37;18.33;;;7.70;99.90;;;;;;5070997;28;20220;-61
2021/03/11 00:45:49;;;;;;;37.93;20.13;;;7.70;99.90;;;;;;5070344;28;20737;-61
2021/03/11 00:48:16;;;;;;;35.97;20.03;;;7.70;99.90;;;;;;5072897;28;20224;-61
2021/03/11 00:50:44;;;;;;;41.03;22.40;;;7.70;99.90;;;;;;5066175;28;20192;-61
2021/03/11 00:53:12;;;;;;;34.80;21.33;;;7.70;99.90;;;;;;5068547;28;20250;-61
2021/03/11 00:55:39;;;;;;;39.50;22.27;;;7.70;99.90;;;;;;5068796;28;20203;-61
2021/03/11 00:58:06;;;;;;;35.80;20.83;;;7.70;99.90;;;;;;5068845;28;20184;-61
2021/03/11 01:00:35;;;;;;;37.53;20.07;;;7.70;99.90;;;;;;5067525;28;20199;-61
2021/03/11 01:03:02;;;;;;;39.43;21.00;;;7.70;99.90;;;;;;5074653;28;20227;-61
2021/03/11 01:05:31;;;;;;;38.27;20.73;;;7.80;99.90;;;;;;5070494;28;20199;-60
2021/03/11 01:07:58;;;;;;;37.13;21.70;;;7.70;99.90;;;;;;5072938;28;20618;-61
2021/03/11 01:10:26;;;;;;;37.77;22.07;;;7.80;99.90;;;;;;5069252;28;20196;-61
2021/03/11 01:12:53;;;;;;;48.27;22.10;;;7.80;99.90;;;;;;5065721;28;20295;-60
2021/03/11 01:15:24;;;;;;;39.23;21.93;;;7.70;99.90;;;;;;5069015;28;20318;-61
2021/03/11 01:17:54;;;;;;;38.70;21.47;;;7.80;99.90;;;;;;5071439;28;20303;-61
2021/03/11 01:20:22;;;;;;;37.77;21.70;;;7.80;99.90;;;;;;5067080;28;20279;-61
2021/03/11 01:22:49;;;;;;;34.57;20.43;;;7.90;99.90;;;;;;5065836;28;20223;-61
2021/03/11 01:25:17;;;;;;;40.43;22.03;;;7.90;99.90;;;;;;5064615;28;20219;-61
2021/03/11 01:27:44;;;;;;;37.60;20.73;;;7.90;99.90;;;;;;5065958;28;20290;-60
2021/03/11 01:30:13;;;;;;;37.00;21.00;;;7.90;99.90;;;;;;5071644;28;20284;-61
2021/03/11 01:32:40;;;;;;;37.40;21.07;;;8.00;99.90;;;;;;5068446;28;20247;-61
2021/03/11 01:35:10;;;;;;;36.93;21.17;;;8.00;99.90;;;;;;5067400;28;20299;-61
2021/03/11 01:37:38;;;;;;;40.83;21.83;;;8.00;99.90;;;;;;5063106;28;20277;-61
2021/03/11 01:40:09;;;;;;;40.73;22.40;;;8.00;99.90;;;;;;5071018;28;20662;-61
2021/03/11 01:42:36;;;;;;;41.70;22.33;;;8.00;99.90;;;;;;5065942;28;20235;-61
2021/03/11 01:45:05;;;;;;;39.30;22.13;;;7.90;99.90;;;;;;5070916;28;20287;-61
2021/03/11 01:47:33;;;;;;;42.80;21.97;;;7.90;99.90;;;;;;5086674;28;20282;-61
2021/03/11 01:50:01;;;;;;;41.80;22.40;;;7.90;99.90;;;;;;5069367;28;20192;-61
2021/03/11 01:52:30;;;;;;;43.07;22.50;;;7.80;99.90;;;;;;5078952;28;20624;-61
2021/03/11 01:54:57;;;;;;;45.90;23.47;;;7.80;99.90;;;;;;5063349;28;20699;-61
2021/03/11 01:57:25;;;;;;;44.47;22.57;;;7.80;99.90;;;;;;5063454;28;20246;-61
2021/03/11 01:59:53;;;;;;;45.30;24.47;;;7.80;99.90;;;;;;5064788;28;20291;-61
2021/03/11 02:02:20;;;;;;;43.77;23.90;;;7.80;99.90;;;;;;5063819;28;20279;-61
2021/03/11 02:04:48;;;;;;;46.80;24.00;;;7.80;99.90;;;;;;5067913;28;20210;-61
2021/03/11 02:07:15;;;;;;;50.23;24.33;;;7.80;99.90;;;;;;5069887;28;20279;-61
2021/03/11 02:09:44;;;;;;;49.27;24.90;;;7.90;99.90;;;;;;5067144;28;20885;-61
2021/03/11 02:12:20;;;;;;;44.53;21.40;;;7.90;99.90;;;;;;5069767;28;20216;-61
2021/03/11 02:14:56;;;;;;;43.07;23.53;;;8.00;99.90;;;;;;5069009;28;20247;-61
2021/03/11 02:17:29;;;;;;;43.97;22.33;;;8.00;99.90;;;;;;5071945;28;20226;-61
2021/03/11 02:20:36;;;;;;;46.27;23.27;;;8.10;99.90;;;;;;5073204;28;20226;-61
2021/03/11 02:23:39;;;;;;;41.67;21.70;;;8.10;99.90;;;;;;5051906;28;20223;-61
2021/03/11 02:26:24;;;;;;;42.70;22.37;;;8.10;99.90;;;;;;5072642;28;20618;-61
2021/03/11 02:28:58;;;;;;;36.33;20.50;;;8.10;99.90;;;;;;5063343;28;20192;-62
2021/03/11 02:31:28;;;;;;;40.90;21.00;;;8.20;99.90;;;;;;5070626;28;20230;-61
2021/03/11 02:33:57;;;;;;;37.53;20.53;;;8.20;99.90;;;;;;5069670;28;20212;-61
2021/03/11 02:36:26;;;;;;;34.90;19.37;;;8.20;99.90;;;;;;5069923;28;20227;-61
2021/03/11 02:38:55;;;;;;;39.33;19.67;;;8.20;99.90;;;;;;5066836;28;20231;-61
2021/03/11 02:41:25;;;;;;;36.90;18.07;;;8.20;99.90;;;;;;5069416;28;20279;-61
2021/03/11 02:43:53;;;;;;;38.60;19.73;;;8.20;99.90;;;;;;5081287;28;20717;-61
2021/03/11 02:46:22;;;;;;;37.37;20.73;;;8.20;99.90;;;;;;5068633;28;20683;-61
2021/03/11 02:48:52;;;;;;;37.10;20.17;;;8.30;99.90;;;;;;5075477;28;20188;-61
2021/03/11 02:51:21;;;;;;;32.37;18.67;;;8.20;99.90;;;;;;5062408;28;20220;-62
2021/03/11 02:53:50;;;;;;;34.37;17.87;;;8.20;99.90;;;;;;5067281;28;20705;-62
2021/03/11 02:56:19;;;;;;;37.93;20.83;;;8.30;99.90;;;;;;5067844;28;20681;-61
2021/03/11 02:58:48;;;;;;;32.40;16.60;;;8.30;99.90;;;;;;5072318;28;20249;-61
2021/03/11 03:01:18;;;;;;;38.23;19.80;;;8.40;99.90;;;;;;5061902;28;20346;-61
2021/03/11 03:03:48;;;;;;;27.77;17.27;;;8.40;99.90;;;;;;5067882;28;20213;-61
2021/03/11 03:06:18;;;;;;;24.93;15.57;;;8.40;99.90;;;;;;5069712;28;20227;-62
2021/03/11 03:08:46;;;;;;;28.40;16.40;;;8.60;99.90;;;;;;5068568;28;20489;-62
2021/03/11 03:11:14;;;;;;;28.07;16.60;;;8.60;99.90;;;;;;5067308;28;20215;-61
2021/03/11 03:13:43;;;;;;;27.27;15.90;;;8.70;99.90;;;;;;5067316;28;20796;-61
2021/03/11 03:16:11;;;;;;;26.83;16.73;;;8.70;99.90;;;;;;5067442;28;20238;-61
2021/03/11 03:18:40;;;;;;;28.03;16.30;;;8.70;99.90;;;;;;5082324;28;20200;-61
2021/03/11 03:21:10;;;;;;;28.83;16.23;;;8.80;99.90;;;;;;5064746;28;20203;-61
2021/03/11 03:23:40;;;;;;;24.63;13.33;;;8.80;99.90;;;;;;5065097;28;20198;-61
2021/03/11 03:26:07;;;;;;;24.63;15.67;;;8.80;99.90;;;;;;5062086;28;20287;-61
2021/03/11 03:28:36;;;;;;;23.10;14.80;;;8.90;99.90;;;;;;5063696;28;20304;-62
2021/03/11 03:31:06;;;;;;;20.73;13.90;;;8.90;99.90;;;;;;5082495;28;20191;-61
2021/03/11 03:33:33;;;;;;;24.90;14.80;;;8.90;99.90;;;;;;5063678;28;20218;-62
2021/03/11 03:36:01;;;;;;;26.53;13.97;;;9.00;99.90;;;;;;5071657;28;20253;-61
2021/03/11 03:38:29;;;;;;;25.33;14.00;;;9.00;99.90;;;;;;5069634;28;20223;-62
2021/03/11 03:40:59;;;;;;;24.37;13.10;;;9.00;99.90;;;;;;5068670;28;20385;-61
2021/03/11 03:43:30;;;;;;;23.03;13.57;;;9.00;99.90;;;;;;5068665;28;20283;-61
2021/03/11 03:46:08;;;;;;;19.97;13.47;;;9.00;99.90;;;;;;5078245;28;20285;-61
2021/03/11 03:48:40;;;;;;;20.63;13.63;;;9.10;99.90;;;;;;5061453;28;20195;-61
2021/03/11 03:51:09;;;;;;;22.07;13.87;;;9.10;99.90;;;;;;5067494;28;20192;-62
2021/03/11 03:53:41;;;;;;;21.83;13.23;;;9.10;99.90;;;;;;5067243;28;20306;-61
2021/03/11 03:56:14;;;;;;;24.90;13.33;;;9.00;99.90;;;;;;5054124;28;20201;-62
2021/03/11 03:58:44;;;;;;;20.10;13.10;;;9.00;99.90;;;;;;5065189;28;20557;-62
2021/03/11 04:01:12;;;;;;;21.83;13.17;;;9.10;99.90;;;;;;5062500;28;20287;-61
2021/03/11 04:03:40;;;;;;;21.83;14.13;;;9.10;99.90;;;;;;5067745;28;20242;-61
2021/03/11 04:06:12;;;;;;;22.43;13.63;;;9.10;99.90;;;;;;5062826;28;20284;-61
2021/03/11 04:08:42;;;;;;;19.97;12.73;;;9.10;99.90;;;;;;5067172;28;20772;-62
2021/03/11 04:11:11;;;;;;;21.23;13.80;;;9.20;99.90;;;;;;5063880;28;20196;-61
2021/03/11 04:13:39;;;;;;;23.60;14.30;;;9.20;99.90;;;;;;5076771;28;20301;-61
2021/03/11 04:16:07;;;;;;;19.57;11.27;;;9.20;99.90;;;;;;5068152;28;20259;-62
2021/03/11 04:18:36;;;;;;;19.10;12.20;;;9.20;99.90;;;;;;5068910;28;20203;-61
2021/03/11 04:21:06;;;;;;;18.67;12.70;;;9.30;99.90;;;;;;5065599;28;20230;-61
2021/03/11 04:23:34;;;;;;;19.63;12.73;;;9.30;99.90;;;;;;5069606;28;20192;-61
2021/03/11 04:26:03;;;;;;;18.43;11.57;;;9.30;99.90;;;;;;5067268;28;20308;-61
2021/03/11 04:28:31;;;;;;;18.23;11.60;;;9.40;99.90;;;;;;5065867;28;20204;-61
2021/03/11 04:30:58;;;;;;;16.43;10.57;;;9.40;99.90;;;;;;5072411;28;20200;-62
2021/03/11 04:33:27;;;;;;;13.17;9.57;;;9.50;99.90;;;;;;5062717;28;20216;-61
2021/03/11 04:35:55;;;;;;;13.43;9.53;;;9.60;99.90;;;;;;5066342;28;20226;-61
2021/03/11 04:38:23;;;;;;;13.60;9.23;;;9.60;99.90;;;;;;5063768;28;20188;-61
2021/03/11 04:40:52;;;;;;;17.17;9.60;;;9.70;99.90;;;;;;5068186;28;20199;-62
2021/03/11 04:43:20;;;;;;;13.70;9.07;;;9.80;99.90;;;;;;5068965;28;20184;-62
2021/03/11 04:45:49;;;;;;;14.33;9.07;;;9.90;99.90;;;;;;5069913;28;20206;-61
2021/03/11 04:48:17;;;;;;;10.77;7.87;;;9.90;99.90;;;;;;5079124;28;20280;-62
2021/03/11 04:50:46;;;;;;;10.37;7.60;;;9.90;99.90;;;;;;5066079;28;20220;-61
2021/03/11 04:53:15;;;;;;;10.17;7.90;;;10.00;99.90;;;;;;5066576;28;20230;-62
2021/03/11 04:55:43;;;;;;;8.70;7.13;;;10.10;99.90;;;;;;5061648;28;20708;-62
2021/03/11 04:58:10;;;;;;;8.67;6.93;;;10.10;99.90;;;;;;5049437;28;20284;-61
2021/03/11 05:00:40;;;;;;;9.27;6.57;;;10.10;99.90;;;;;;5073598;28;20635;-62
2021/03/11 05:03:10;;;;;;;9.97;6.77;;;10.20;99.90;;;;;;5063737;28;20212;-61
2021/03/11 05:05:39;;;;;;;7.50;6.13;;;10.20;99.90;;;;;;5069276;28;20598;-61
2021/03/11 05:08:07;;;;;;;15.30;7.30;;;10.20;99.90;;;;;;5070952;28;20192;-62
2021/03/11 05:10:35;;;;;;;8.53;5.87;;;10.30;99.90;;;;;;5070839;28;20231;-63
2021/03/11 05:13:03;;;;;;;16.53;7.17;;;10.40;99.90;;;;;;5071897;28;20623;-61
2021/03/11 05:15:31;;;;;;;10.43;6.47;;;10.30;99.90;;;;;;5067905;28;20262;-62
2021/03/11 05:18:00;;;;;;;10.30;6.80;;;10.10;99.90;;;;;;5074969;28;20793;-61
2021/03/11 05:20:27;;;;;;;11.47;7.50;;;10.00;99.90;;;;;;5063757;28;20258;-61
2021/03/11 05:22:55;;;;;;;10.20;6.50;;;9.90;99.90;;;;;;5079110;28;20308;-62
2021/03/11 05:25:23;;;;;;;7.50;6.53;;;9.90;99.90;;;;;;5067273;28;20275;-62
2021/03/11 05:27:50;;;;;;;8.67;6.60;;;9.90;99.90;;;;;;5060849;28;20659;-61
2021/03/11 05:30:18;;;;;;;9.53;6.17;;;10.00;99.90;;;;;;5069247;28;20403;-61
2021/03/11 05:32:46;;;;;;;6.67;5.93;;;10.00;99.90;;;;;;5063675;28;20232;-61
2021/03/11 05:35:14;;;;;;;9.33;6.53;;;10.10;99.90;;;;;;5070676;28;20199;-61
2021/03/11 05:37:41;;;;;;;8.00;6.13;;;10.00;99.90;;;;;;5072237;28;20188;-61
2021/03/11 05:40:11;;;;;;;9.77;6.90;;;9.90;99.90;;;;;;5068832;28;20220;-61
2021/03/11 05:42:39;;;;;;;9.27;6.90;;;9.80;99.90;;;;;;5068424;28;20642;-61
2021/03/11 05:45:08;;;;;;;9.23;7.03;;;9.80;99.90;;;;;;5070144;28;20261;-61
2021/03/11 05:47:37;;;;;;;11.60;7.53;;;9.80;99.90;;;;;;5065616;28;20224;-61
2021/03/11 05:50:07;;;;;;;9.53;7.43;;;9.70;99.90;;;;;;5068036;28;20188;-61
2021/03/11 05:52:35;;;;;;;11.53;7.30;;;9.70;99.90;;;;;;5069004;28;20296;-61
2021/03/11 05:55:06;;;;;;;9.20;7.43;;;9.70;99.90;;;;;;5069687;28;20224;-61
2021/03/11 05:57:40;;;;;;;10.43;7.30;;;9.70;99.90;;;;;;5068887;28;20249;-60
2021/03/11 06:00:09;;;;;;;11.57;7.20;;;9.70;99.90;;;;;;5067469;28;20192;-60
2021/03/11 06:02:39;;;;;;;7.83;6.50;;;9.70;99.90;;;;;;5069354;28;20204;-60
2021/03/11 06:05:08;;;;;;;12.23;6.87;;;9.70;99.90;;;;;;5071012;28;20279;-60
2021/03/11 06:07:38;;;;;;;9.53;6.70;;;9.70;99.90;;;;;;5072893;28;20287;-60
2021/03/11 06:10:06;;;;;;;8.87;6.60;;;9.70;99.90;;;;;;5082632;28;20331;-60
2021/03/11 06:12:35;;;;;;;9.60;6.70;;;9.70;99.90;;;;;;5067853;28;20200;-60
2021/03/11 06:15:07;;;;;;;9.90;7.13;;;9.70;99.90;;;;;;5069732;28;20235;-60
2021/03/11 06:17:37;;;;;;;11.23;8.70;;;9.70;99.90;;;;;;5067481;28;20207;-60
2021/03/11 06:20:05;;;;;;;13.57;9.00;;;9.80;99.90;;;;;;5073000;28;20192;-60
2021/03/11 06:22:33;;;;;;;9.30;6.77;;;9.80;99.90;;;;;;5068282;28;20294;-60
2021/03/11 06:25:01;;;;;;;8.43;7.00;;;9.80;99.90;;;;;;5065716;28;20195;-60
2021/03/11 06:27:29;;;;;;;9.67;6.60;;;9.70;99.90;;;;;;5067309;28;20686;-60
2021/03/11 06:30:00;;;;;;;7.40;6.17;;;9.70;99.90;;;;;;5068167;28;20680;-60
2021/03/11 06:32:28;;;;;;;9.23;5.97;;;9.70;99.90;;;;;;5069465;28;20294;-60
2021/03/11 06:34:56;;;;;;;7.37;5.13;;;9.60;99.90;;;;;;5066704;28;20609;-60
2021/03/11 06:37:37;;;;;;;10.80;4.53;;;9.70;99.90;;;;;;5068553;28;20201;-61
2021/03/11 06:40:17;;;;;;;8.13;5.23;;;9.70;99.90;;;;;;5059118;28;20211;-60
2021/03/11 06:42:47;;;;;;;7.60;4.73;;;9.70;99.90;;;;;;5068309;28;20257;-61
2021/03/11 06:45:23;;;;;;;9.80;4.90;;;9.80;99.90;;;;;;5067148;28;20232;-61
2021/03/11 06:47:51;;;;;;;8.43;4.83;;;9.90;99.90;;;;;;5068193;28;20286;-61
2021/03/11 06:50:31;;;;;;;9.20;4.80;;;9.90;99.90;;;;;;5067832;28;20273;-61
2021/03/11 06:53:03;;;;;;;7.17;5.00;;;10.00;99.90;;;;;;5061695;28;20224;-60
2021/03/11 06:55:31;;;;;;;8.10;4.60;;;10.00;99.90;;;;;;5074401;28;20286;-61
2021/03/11 06:58:18;;;;;;;9.33;4.70;;;10.00;99.90;;;;;;5062839;28;20210;-61
2021/03/11 07:00:47;;;;;;;12.67;5.07;;;10.10;99.90;;;;;;5067209;28;20662;-61
2021/03/11 07:03:15;;;;;;;7.97;4.60;;;10.10;99.90;;;;;;5078023;28;20188;-61
2021/03/11 07:05:44;;;;;;;9.87;4.17;;;10.20;99.90;;;;;;5070706;28;20188;-61
2021/03/11 07:08:14;;;;;;;7.53;4.20;;;10.30;99.90;;;;;;5068867;28;20183;-61
2021/03/11 07:10:44;;;;;;;7.67;4.10;;;10.40;99.90;;;;;;5074356;28;20222;-61
2021/03/11 07:13:13;;;;;;;7.90;3.93;;;10.40;99.90;;;;;;5070135;28;20277;-61
2021/03/11 07:15:41;;;;;;;10.13;3.93;;;10.40;99.90;;;;;;5068335;28;20718;-61
2021/03/11 07:18:21;;;;;;;9.03;3.57;;;10.40;99.90;;;;;;5073645;28;20748;-61
2021/03/11 07:20:49;;;;;;;10.40;2.90;;;10.50;99.90;;;;;;5069343;28;20195;-61
2021/03/11 07:23:16;;;;;;;8.20;2.80;;;10.50;99.90;;;;;;5069850;28;20199;-61
2021/03/11 07:25:48;;;;;;;15.63;3.37;;;10.60;99.90;;;;;;5068003;28;20243;-61
2021/03/11 07:28:23;;;;;;;14.17;3.50;;;10.60;99.90;;;;;;5068283;28;20648;-61
2021/03/11 07:30:54;;;;;;;16.37;3.60;;;10.70;99.90;;;;;;5067717;28;20708;-62
2021/03/11 07:33:23;;;;;;;17.53;3.73;;;10.70;99.90;;;;;;5069414;28;20207;-61
2021/03/11 07:35:54;;;;;;;20.43;3.97;;;10.90;99.90;;;;;;5068052;28;20223;-61
2021/03/11 07:38:23;;;;;;;18.00;4.17;;;11.00;99.90;;;;;;5060810;28;20245;-61
2021/03/11 07:40:53;;;;;;;24.47;4.80;;;11.00;99.90;;;;;;5068251;28;20285;-61
2021/03/11 07:43:22;;;;;;;22.50;4.50;;;11.10;99.90;;;;;;5076028;28;20632;-61
2021/03/11 07:45:49;;;;;;;27.27;4.53;;;11.30;99.90;;;;;;5090197;28;20217;-61
2021/03/11 07:48:18;;;;;;;25.93;5.00;;;11.50;99.90;;;;;;5071070;28;20287;-61
2021/03/11 07:50:46;;;;;;;31.23;5.40;;;11.60;99.90;;;;;;5067140;28;20279;-61
2021/03/11 07:53:13;;;;;;;35.77;5.90;;;11.70;99.90;;;;;;5068562;28;20310;-62
2021/03/11 07:55:44;;;;;;;35.37;5.73;;;11.90;99.90;;;;;;5071974;28;20200;-61
2021/03/11 07:58:14;;;;;;;38.67;7.07;;;12.00;99.90;;;;;;5066522;28;20280;-61
2021/03/11 08:00:42;;;;;;;29.47;5.77;;;12.20;99.90;;;;;;5073680;28;20223;-61
2021/03/11 08:03:13;;;;;;;38.97;5.80;;;12.00;99.90;;;;;;5075518;28;20195;-61
2021/03/11 08:05:41;;;;;;;33.47;6.10;;;12.00;99.90;;;;;;5074185;28;20195;-62
2021/03/11 08:08:17;;;;;;;41.63;7.03;;;12.20;99.90;;;;;;5067715;28;20253;-62
2021/03/11 08:10:49;;;;;;;27.03;5.50;;;12.30;99.90;;;;;;5069395;28;20598;-62
2021/03/11 08:13:28;;;;;;;33.87;6.10;;;12.40;99.90;;;;;;5067124;28;20243;-61
2021/03/11 08:15:56;;;;;;;30.87;6.40;;;12.50;99.90;;;;;;5069281;28;20334;-62
2021/03/11 08:18:44;;;;;;;27.50;6.00;;;12.40;99.90;;;;;;5078406;28;20251;-61
2021/03/11 08:21:45;;;;;;;36.40;5.87;;;12.20;99.90;;;;;;5066488;28;20279;-61
2021/03/11 08:24:45;;;;;;;26.43;4.83;;;12.20;99.90;;;;;;5066035;28;20289;-63
2021/03/11 08:27:39;;;;;;;24.90;5.93;;;12.20;99.90;;;;;;5060825;28;20275;-61
2021/03/11 08:30:50;;;;;;;36.10;6.30;;;12.20;99.90;;;;;;5066460;28;20580;-61
2021/03/11 08:33:44;;;;;;;24.23;5.03;;;12.30;99.90;;;;;;5066999;28;20276;-61
2021/03/11 08:36:37;;;;;;;31.37;6.03;;;12.30;99.90;;;;;;5065018;28;20200;-61
2021/03/11 08:39:30;;;;;;;31.30;5.67;;;12.20;99.90;;;;;;5067669;28;20589;-61
2021/03/11 08:41:59;;;;;;;34.60;5.97;;;12.40;99.90;;;;;;5066877;28;20281;-62
2021/03/11 08:44:45;;;;;;;30.17;5.37;;;12.80;99.90;;;;;;5070114;28;20635;-61
2021/03/11 08:47:15;;;;;;;30.03;5.57;;;13.20;99.90;;;;;;5072535;28;20250;-61
2021/03/11 08:49:49;;;;;;;31.87;5.23;;;13.20;99.90;;;;;;5069405;28;20234;-62
2021/03/11 08:52:40;;;;;;;31.27;5.67;;;13.00;99.90;;;;;;5071383;28;20204;-62
2021/03/11 08:55:30;;;;;;;32.23;5.83;;;12.80;99.90;;;;;;5071119;28;20270;-61
2021/03/11 08:57:58;;;;;;;23.63;4.93;;;12.70;99.90;;;;;;5065116;28;20287;-62
2021/03/11 09:00:56;;;;;;;25.67;5.60;;;13.20;99.90;;;;;;5069627;28;20279;-62
2021/03/11 09:03:38;;;;;;;31.30;5.10;;;13.60;99.90;;;;;;5068393;28;20790;-62
2021/03/11 09:06:07;;;;;;;29.07;5.13;;;13.50;99.90;;;;;;5068248;28;20226;-62
2021/03/11 09:08:35;;;;;;;22.03;5.57;;;13.50;99.90;;;;;;5071383;28;20667;-62
2021/03/11 09:11:10;;;;;;;28.60;5.53;;;13.70;99.90;;;;;;5070935;28;20287;-62
2021/03/11 09:13:40;;;;;;;31.27;6.33;;;14.20;99.90;;;;;;5071160;28;20255;-61
2021/03/11 09:16:08;;;;;;;31.07;5.43;;;14.40;99.90;;;;;;5081054;28;20261;-62
2021/03/11 09:18:37;;;;;;;23.80;4.73;;;14.30;99.90;;;;;;5071431;28;20196;-61
2021/03/11 09:21:07;;;;;;;35.77;5.57;;;13.90;99.90;;;;;;5071042;28;20223;-62
2021/03/11 09:23:40;;;;;;;27.33;4.57;;;14.00;99.90;;;;;;5083283;28;20219;-63
2021/03/11 09:26:23;;;;;;;24.33;5.30;;;14.10;99.90;;;;;;5064806;28;20674;-62
2021/03/11 09:28:50;;;;;;;29.00;5.10;;;14.20;99.90;;;;;;5066609;28;20223;-62
2021/03/11 09:31:25;;;;;;;25.33;4.97;;;14.20;99.90;;;;;;5066644;28;20299;-62
2021/03/11 09:33:55;;;;;;;27.97;4.73;;;14.50;99.90;;;;;;5069465;28;20204;-62
2021/03/11 09:36:23;;;;;;;24.17;5.47;;;14.70;99.90;;;;;;5064716;28;20252;-62
2021/03/11 09:38:51;;;;;;;21.53;5.03;;;14.60;99.90;;;;;;5067815;28;20650;-62
2021/03/11 09:41:24;;;;;;;19.80;4.73;;;14.60;99.90;;;;;;5069412;28;20277;-63
2021/03/11 09:43:52;;;;;;;17.93;4.53;;;14.40;99.90;;;;;;5072473;28;20227;-62
2021/03/11 09:46:21;;;;;;;18.83;4.17;;;14.90;99.90;;;;;;5069732;28;20784;-62
2021/03/11 09:48:50;;;;;;;25.13;4.90;;;14.90;99.90;;;;;;5068600;28;20188;-61
2021/03/11 09:51:20;;;;;;;21.33;4.90;;;14.50;99.90;;;;;;5069222;28;20192;-61
2021/03/11 09:53:49;;;;;;;19.77;4.90;;;13.80;99.90;;;;;;5070913;28;20326;-61
2021/03/11 09:56:18;;;;;;;20.40;4.50;;;14.00;99.90;;;;;;5069057;28;20196;-61
2021/03/11 09:58:48;;;;;;;21.13;4.33;;;14.00;99.90;;;;;;5062472;28;20196;-61
2021/03/11 10:01:31;;;;;;;20.97;3.97;;;14.20;99.90;;;;;;5079460;28;20274;-61
2021/03/11 10:03:59;;;;;;;14.93;3.50;;;14.50;99.90;;;;;;5073098;28;20183;-62
2021/03/11 10:06:31;;;;;;;14.33;3.70;;;15.10;99.90;;;;;;5072129;28;20200;-62
2021/03/11 10:09:03;;;;;;;7.47;2.70;;;15.60;99.90;;;;;;5068741;28;20196;-61
2021/03/11 10:11:42;;;;;;;15.47;2.53;;;15.90;99.90;;;;;;5069857;28;20267;-61
2021/03/11 10:14:14;;;;;;;10.37;2.40;;;15.80;99.90;;;;;;5066892;28;20227;-61
2021/03/11 10:16:44;;;;;;;7.63;2.40;;;15.90;99.90;;;;;;5080113;28;20196;-61
2021/03/11 10:19:15;;;;;;;9.93;2.90;;;16.00;99.90;;;;;;5081678;28;20275;-61
2021/03/11 10:21:52;;;;;;;7.73;2.77;;;16.10;99.90;;;;;;5069284;28;20240;-61
2021/03/11 10:24:37;;;;;;;10.13;2.90;;;16.50;99.90;;;;;;5065795;28;20197;-62
2021/03/11 10:27:06;;;;;;;11.77;2.87;;;16.10;99.90;;;;;;5068264;28;20196;-62
2021/03/11 10:29:34;;;;;;;10.13;3.10;;;16.00;99.90;;;;;;5071227;28;20192;-61
2021/03/11 10:32:04;;;;;;;16.43;2.93;;;16.00;99.90;;;;;;5067312;28;20201;-61
2021/03/11 10:34:48;;;;;;;16.40;3.17;;;15.40;99.90;;;;;;5065728;28;20645;-61
2021/03/11 10:37:25;;;;;;;14.23;3.10;;;15.10;99.90;;;;;;5067622;28;20266;-61
2021/03/11 10:39:54;;;;;;;15.80;4.10;;;15.70;99.90;;;;;;5069760;28;20253;-62
2021/03/11 10:42:23;;;;;;;17.27;3.70;;;16.10;99.90;;;;;;5071496;28;20196;-61
2021/03/11 10:44:58;;;;;;;15.63;3.80;;;16.10;99.90;;;;;;5071197;28;20705;-60
2021/03/11 10:47:26;;;;;;;20.53;4.47;;;15.50;99.90;;;;;;5069372;28;20225;-61
2021/03/11 10:49:55;;;;;;;11.30;3.67;;;15.30;99.90;;;;;;5071108;28;20214;-61
2021/03/11 10:52:22;;;;;;;16.30;3.90;;;15.80;99.90;;;;;;5070474;28;20251;-61
2021/03/11 10:54:51;;;;;;;16.60;3.67;;;16.10;99.90;;;;;;5069858;28;20216;-61
2021/03/11 10:57:20;;;;;;;15.80;4.13;;;15.90;99.90;;;;;;5068340;28;20187;-61
2021/03/11 10:59:49;;;;;;;23.30;4.60;;;16.00;99.90;;;;;;5067482;28;20257;-62
2021/03/11 11:02:17;;;;;;;22.20;4.77;;;15.40;99.90;;;;;;5067133;28;20200;-61
2021/03/11 11:04:52;;;;;;;18.50;4.40;;;14.80;99.90;;;;;;5067531;28;21899;-60
2021/03/11 11:07:20;;;;;;;21.17;4.23;;;14.50;99.90;;;;;;5064435;28;20196;-60
2021/03/11 11:09:49;;;;;;;21.53;4.80;;;14.70;99.90;;;;;;5062563;28;20200;-61
2021/03/11 11:12:19;;;;;;;19.20;4.30;;;14.90;99.90;;;;;;5065154;28;20683;-61
2021/03/11 11:14:48;;;;;;;13.23;3.27;;;15.20;99.90;;;;;;5062269;28;20220;-61
2021/03/11 11:17:21;;;;;;;15.00;3.77;;;15.20;99.90;;;;;;5063397;28;20199;-61
2021/03/11 11:19:48;;;;;;;23.90;4.60;;;14.70;99.90;;;;;;5069872;28;20188;-61
2021/03/11 11:22:16;;;;;;;19.40;4.20;;;14.50;99.90;;;;;;5067191;28;20191;-61
2021/03/11 11:24:44;;;;;;;20.83;3.87;;;14.80;99.90;;;;;;5068008;28;20188;-61
2021/03/11 11:27:13;;;;;;;16.57;3.37;;;15.40;99.90;;;;;;5059927;28;20220;-61
2021/03/11 11:29:41;;;;;;;18.33;3.40;;;15.70;99.90;;;;;;5065256;28;20191;-61
2021/03/11 11:32:09;;;;;;;20.93;3.80;;;15.50;99.90;;;;;;5064587;28;20204;-61
2021/03/11 11:34:36;;;;;;;17.60;3.63;;;15.00;99.90;;;;;;5070943;28;20214;-61
2021/03/11 11:37:04;;;;;;;13.10;3.83;;;14.70;99.90;;;;;;5060132;28;20189;-60
2021/03/11 11:39:31;;;;;;;16.80;3.90;;;14.60;99.90;;;;;;5063729;28;20706;-61
2021/03/11 11:41:59;;;;;;;18.23;3.70;;;14.40;99.90;;;;;;5063254;28;20199;-61
2021/03/11 11:44:26;;;;;;;14.27;3.43;;;14.10;99.90;;;;;;5064516;28;20196;-61
2021/03/11 11:46:55;;;;;;;12.80;3.40;;;14.00;99.90;;;;;;5066300;28;20241;-61
2021/03/11 11:49:22;;;;;;;20.00;3.57;;;13.70;99.90;;;;;;5065876;28;20224;-61
2021/03/11 11:51:49;;;;;;;13.87;3.50;;;13.80;99.90;;;;;;5066198;28;20250;-61
2021/03/11 11:54:18;;;;;;;21.37;4.40;;;13.60;99.90;;;;;;5064015;28;20208;-61
2021/03/11 11:56:45;;;;;;;17.33;3.60;;;13.60;99.90;;;;;;5065682;28;20295;-61
2021/03/11 11:59:12;;;;;;;21.93;3.90;;;13.70;99.90;;;;;;5065681;28;20650;-61
2021/03/11 12:01:40;;;;;;;21.50;3.77;;;13.80;99.90;;;;;;5058124;28;20196;-60
2021/03/11 12:04:08;;;;;;;24.80;4.30;;;13.90;99.90;;;;;;5067292;28;20608;-61
2021/03/11 12:06:36;;;;;;;17.73;3.30;;;13.60;99.90;;;;;;5066513;28;20253;-61
2021/03/11 12:09:04;;;;;;;14.60;4.17;;;13.30;99.90;;;;;;5068233;28;20698;-63
2021/03/11 12:11:33;;;;;;;22.83;4.27;;;13.40;99.90;;;;;;5074011;28;20298;-61
2021/03/11 12:14:02;;;;;;;17.33;3.73;;;13.10;99.90;;;;;;5072310;28;20207;-61
2021/03/11 12:16:29;;;;;;;24.40;4.23;;;13.00;99.90;;;;;;5071955;28;20249;-61
2021/03/11 12:18:57;;;;;;;20.00;3.80;;;13.00;99.90;;;;;;5067893;28;20184;-61
2021/03/11 12:21:26;;;;;;;17.10;3.60;;;13.20;99.90;;;;;;5072554;28;20218;-61
2021/03/11 12:23:53;;;;;;;20.20;3.77;;;13.50;99.90;;;;;;5070502;28;20195;-61
2021/03/11 12:26:21;;;;;;;16.30;3.57;;;13.60;99.90;;;;;;5072459;28;20192;-60
2021/03/11 12:28:49;;;;;;;17.00;3.60;;;13.40;99.90;;;;;;5074853;28;20224;-60
2021/03/11 12:31:17;;;;;;;16.93;3.50;;;13.30;99.90;;;;;;5073356;28;20283;-61
2021/03/11 12:33:46;;;;;;;20.57;3.73;;;13.50;99.90;;;;;;5071867;28;20575;-61
2021/03/11 12:36:14;;;;;;;14.47;3.63;;;13.60;99.90;;;;;;5070406;28;20200;-60
2021/03/11 12:38:42;;;;;;;17.27;3.90;;;13.70;99.90;;;;;;5072481;28;20275;-61
2021/03/11 12:41:10;;;;;;;14.60;3.50;;;13.70;99.90;;;;;;5079321;28;20206;-61
2021/03/11 12:43:38;;;;;;;16.43;3.20;;;13.50;99.90;;;;;;5070707;28;20238;-60
2021/03/11 12:46:05;;;;;;;13.23;3.30;;;13.40;99.90;;;;;;5071754;28;20592;-61
2021/03/11 12:48:33;;;;;;;14.10;3.53;;;13.40;99.90;;;;;;5081446;28;20199;-61
2021/03/11 12:51:01;;;;;;;11.67;3.03;;;13.70;99.90;;;;;;5078308;28;20298;-60
2021/03/11 12:53:28;;;;;;;12.67;3.30;;;13.80;99.90;;;;;;5071613;28;20196;-61
2021/03/11 12:55:57;;;;;;;19.37;3.03;;;13.90;99.90;;;;;;5081243;28;20307;-61
2021/03/11 12:58:24;;;;;;;15.73;2.70;;;14.20;99.90;;;;;;5083933;28;20633;-63